Terminal Aerodrome Forecast
Issued by NWS Grand Forks, ND

Home | Current Version | Previous Version | Text Only | Print | Product List | Glossary Off
Versions: 1 2 3 4 5 6 7 8 9 10 11 12 13 14 15 16 17 18

000
FTUS43 KFGF 201124
TAFFAR
TAF
KFAR 201124Z 2012/2112 08007KT P6SM BKN100
     FM201600 08009KT P6SM VCSH OVC060
     FM201900 07010KT P6SM OVC045
      TEMPO 2019/2023 4SM -SHRA OVC025
     FM202300 06010KT 6SM -SHRA OVC025
     FM210500 02010KT 4SM -SHRA OVC008
     FM210700 01009KT P6SM VCSH OVC008
     FM211100 35008KT P6SM OVC008=

USA.gov is the U.S. government's official web portal to all federal, state and local government web resources and services.